createdAt,value
2023-10-10T00:00:50.453Z,3.90
2023-10-10T00:03:19.627Z,4.97
2023-10-10T00:05:46.269Z,4.43
2023-10-10T00:08:12.821Z,5.05
2023-10-10T00:10:51.698Z,4.13
2023-10-10T00:13:19.111Z,4.50
2023-10-10T00:15:52.415Z,4.38
2023-10-10T00:18:20.694Z,4.50
2023-10-10T00:21:05.825Z,4.80
2023-10-10T00:23:39.516Z,5.55
2023-10-10T00:28:35.690Z,4.50
2023-10-10T00:31:09.454Z,5.05
2023-10-10T00:33:39.498Z,4.85
2023-10-10T00:36:12.036Z,5.78
2023-10-10T00:38:38.648Z,4.93
2023-10-10T00:41:12.185Z,5.50
2023-10-10T00:43:38.761Z,4.53
2023-10-10T00:46:09.088Z,5.38
2023-10-10T00:48:39.378Z,5.22
2023-10-10T00:51:11.852Z,4.70
2023-10-10T00:53:43.307Z,4.70
2023-10-10T00:56:10.213Z,5.03
2023-10-10T00:58:37.886Z,5.07
2023-10-10T01:01:10.881Z,4.65
2023-10-10T01:03:41.568Z,4.05
2023-10-10T01:06:27.800Z,5.85
2023-10-10T01:09:00.883Z,6.70
2023-10-10T01:11:27.577Z,5.60
2023-10-10T01:13:54.133Z,5.70
2023-10-10T01:16:25.972Z,5.25
2023-10-10T01:18:55.415Z,4.45
2023-10-10T01:21:32.158Z,4.28
2023-10-10T01:24:07.545Z,4.05
2023-10-10T01:26:38.385Z,3.95
2023-10-10T01:29:35.206Z,4.20
2023-10-10T01:32:03.782Z,4.00
2023-10-10T01:34:34.200Z,4.55
2023-10-10T01:37:08.810Z,3.78
2023-10-10T01:39:54.799Z,3.90
2023-10-10T01:42:32.778Z,4.20
2023-10-10T01:45:09.305Z,4.00
2023-10-10T01:47:40.826Z,3.60
2023-10-10T01:50:16.914Z,3.75
2023-10-10T01:52:47.645Z,3.72
2023-10-10T01:55:17.721Z,3.80
2023-10-10T01:57:44.534Z,4.20
2023-10-10T02:00:28.321Z,4.30
2023-10-10T02:02:56.946Z,3.90
2023-10-10T02:05:46.525Z,3.90
2023-10-10T02:08:18.158Z,3.88
2023-10-10T02:10:48.835Z,4.03
2023-10-10T02:13:15.904Z,4.15
2023-10-10T02:15:43.254Z,3.80
2023-10-10T02:18:32.920Z,4.88
2023-10-10T02:21:07.257Z,4.25
2023-10-10T02:23:34.099Z,4.63
2023-10-10T02:26:15.610Z,4.28
2023-10-10T02:28:49.384Z,4.30
2023-10-10T02:31:17.572Z,4.47
2023-10-10T02:33:49.774Z,4.05
2023-10-10T02:36:17.852Z,4.32
2023-10-10T02:38:56.941Z,4.03
2023-10-10T02:41:39.289Z,4.40
2023-10-10T02:44:10.905Z,4.25
2023-10-10T02:46:43.699Z,4.03
2023-10-10T02:49:24.660Z,4.05
2023-10-10T02:51:56.438Z,4.90
2023-10-10T02:54:28.100Z,4.35
2023-10-10T02:57:26.536Z,4.40
2023-10-10T03:00:00.496Z,4.32
2023-10-10T03:02:31.605Z,4.00
2023-10-10T03:04:59.921Z,4.00
2023-10-10T03:07:30.446Z,4.00
2023-10-10T03:10:05.064Z,4.47
2023-10-10T03:12:32.827Z,4.28
2023-10-10T03:15:29.394Z,4.65
2023-10-10T03:17:56.474Z,4.05
2023-10-10T03:20:45.586Z,4.00
2023-10-10T03:23:12.163Z,4.07
2023-10-10T03:25:48.007Z,4.28
2023-10-10T03:28:29.931Z,4.20
2023-10-10T03:31:24.694Z,3.63
2023-10-10T03:34:17.953Z,3.42
2023-10-10T03:37:04.246Z,3.60
2023-10-10T03:39:45.812Z,3.60
2023-10-10T03:42:30.925Z,3.17
2023-10-10T03:45:15.990Z,3.00
2023-10-10T03:48:00.797Z,3.70
2023-10-10T03:50:46.003Z,2.90
2023-10-10T03:53:30.813Z,3.78
2023-10-10T03:56:15.793Z,3.30
2023-10-10T03:59:00.828Z,3.33
2023-10-10T04:01:46.065Z,2.83
2023-10-10T04:04:32.909Z,3.78
2023-10-10T04:07:17.692Z,3.55
2023-10-10T04:10:02.593Z,3.55
2023-10-10T04:12:47.502Z,3.65
2023-10-10T04:15:33.066Z,3.28
2023-10-10T04:18:18.276Z,3.63
2023-10-10T04:21:03.126Z,3.33
2023-10-10T04:23:48.107Z,3.25
2023-10-10T04:26:32.966Z,2.88
2023-10-10T04:29:18.041Z,3.20
2023-10-10T04:32:03.033Z,3.70
2023-10-10T04:34:48.258Z,3.20
2023-10-10T04:37:46.977Z,3.00
2023-10-10T04:40:32.392Z,3.10
2023-10-10T04:43:17.155Z,3.10
2023-10-10T04:46:01.998Z,3.08
2023-10-10T04:48:47.171Z,3.03
2023-10-10T04:51:31.961Z,2.75
2023-10-10T04:54:17.146Z,2.90
2023-10-10T04:57:02.486Z,3.20
2023-10-10T04:59:47.861Z,2.78
2023-10-10T05:02:32.787Z,2.63
2023-10-10T05:05:17.997Z,3.25
2023-10-10T05:08:03.163Z,2.92
2023-10-10T05:10:48.393Z,2.55
2023-10-10T05:13:33.261Z,3.00
2023-10-10T05:16:22.841Z,2.60
2023-10-10T05:19:12.224Z,3.67
2023-10-10T05:21:57.110Z,3.15
2023-10-10T05:24:25.792Z,3.40
2023-10-10T05:26:55.699Z,3.28
2023-10-10T05:29:22.394Z,2.80
2023-10-10T05:31:52.205Z,2.53
2023-10-10T05:34:21.739Z,3.03
2023-10-10T05:36:49.225Z,3.05
2023-10-10T05:39:19.170Z,2.88
2023-10-10T05:41:45.970Z,3.00
2023-10-10T05:44:14.925Z,3.25
2023-10-10T05:46:41.828Z,3.25
2023-10-10T05:49:08.301Z,3.33
2023-10-10T05:51:34.802Z,3.28
2023-10-10T05:54:01.319Z,2.97
2023-10-10T05:56:31.115Z,2.97
2023-10-10T05:58:57.974Z,3.33
2023-10-10T06:01:25.039Z,3.50
2023-10-10T06:03:52.617Z,2.97
2023-10-10T06:06:19.598Z,3.50
2023-10-10T06:08:46.665Z,3.58
2023-10-10T06:11:16.910Z,3.45
2023-10-10T06:13:46.859Z,3.53
2023-10-10T06:16:16.127Z,3.58
2023-10-10T06:18:45.792Z,3.80
2023-10-10T06:21:12.828Z,3.70
2023-10-10T06:23:43.164Z,3.78
2023-10-10T06:26:10.249Z,4.00
2023-10-10T06:28:37.351Z,3.53
2023-10-10T06:31:11.619Z,3.85
2023-10-10T06:33:42.531Z,4.32
2023-10-10T06:36:33.772Z,3.90
2023-10-10T06:39:19.312Z,3.95
2023-10-10T06:41:48.727Z,3.95
2023-10-10T06:44:16.421Z,3.88
2023-10-10T06:46:49.202Z,3.65
2023-10-10T06:49:16.555Z,4.10
2023-10-10T06:51:43.228Z,4.03
2023-10-10T06:54:20.818Z,4.43
2023-10-10T06:57:00.302Z,4.05
2023-10-10T06:59:30.672Z,3.83
2023-10-10T07:02:01.480Z,4.90
2023-10-10T07:04:28.745Z,4.30
2023-10-10T07:07:01.555Z,4.45
2023-10-10T07:09:29.830Z,4.50
2023-10-10T07:14:27.376Z,4.28
2023-10-10T07:16:58.002Z,4.22
2023-10-10T07:19:31.472Z,4.43
2023-10-10T07:22:01.199Z,5.20
2023-10-10T07:24:44.035Z,5.05
2023-10-10T07:27:13.923Z,4.88
2023-10-10T07:29:46.365Z,5.75
2023-10-10T07:32:19.069Z,5.40
2023-10-10T07:34:52.832Z,5.03
2023-10-10T07:40:05.277Z,4.90
2023-10-10T07:42:32.382Z,5.50
2023-10-10T07:44:59.621Z,4.80
2023-10-10T07:47:27.985Z,4.70
2023-10-10T07:49:55.464Z,5.32
2023-10-10T07:52:22.613Z,5.03
2023-10-10T07:54:54.788Z,4.68
2023-10-10T07:57:27.544Z,5.25
2023-10-10T07:59:56.726Z,5.20
2023-10-10T08:02:26.945Z,5.40
2023-10-10T08:04:54.939Z,5.82
2023-10-10T08:07:23.990Z,6.20
2023-10-10T08:09:50.908Z,5.93
2023-10-10T08:12:17.573Z,5.70
2023-10-10T08:14:44.645Z,5.47
2023-10-10T08:17:20.134Z,5.22
2023-10-10T08:19:52.753Z,4.82
2023-10-10T08:22:21.010Z,5.68
2023-10-10T08:24:47.537Z,5.97
2023-10-10T08:27:14.203Z,6.07
2023-10-10T08:29:41.698Z,5.60
2023-10-10T08:34:44.079Z,6.82
2023-10-10T08:37:11.124Z,6.05
2023-10-10T08:39:40.282Z,6.95
2023-10-10T08:42:12.210Z,7.68
2023-10-10T08:44:40.958Z,7.55
2023-10-10T08:47:09.250Z,8.10
2023-10-10T08:49:36.732Z,7.47
2023-10-10T08:52:04.853Z,6.95
2023-10-10T08:54:33.676Z,6.28
2023-10-10T08:57:01.380Z,7.10
2023-10-10T08:59:32.601Z,7.22
2023-10-10T09:02:10.125Z,7.22
2023-10-10T09:04:36.743Z,6.53
2023-10-10T09:07:09.636Z,7.13
2023-10-10T09:09:36.526Z,6.72
2023-10-10T09:12:04.636Z,6.85
2023-10-10T09:14:42.493Z,6.82
2023-10-10T09:17:10.798Z,6.55
2023-10-10T09:19:42.265Z,6.93
2023-10-10T09:22:13.645Z,6.72
2023-10-10T09:24:42.516Z,6.70
2023-10-10T09:27:29.665Z,7.18
2023-10-10T09:29:57.447Z,5.85
2023-10-10T09:32:43.999Z,6.40
2023-10-10T09:35:10.831Z,5.80
2023-10-10T09:37:42.552Z,7.15
2023-10-10T09:40:17.105Z,6.70
2023-10-10T09:42:59.729Z,6.68
2023-10-10T09:45:37.202Z,6.28
2023-10-10T09:48:29.251Z,6.25
2023-10-10T09:51:18.464Z,7.13
2023-10-10T09:53:48.749Z,8.18
2023-10-10T09:56:16.854Z,6.78
2023-10-10T09:58:45.778Z,6.50
2023-10-10T10:01:24.999Z,6.57
2023-10-10T10:04:04.834Z,6.07
2023-10-10T10:09:48.048Z,6.78
2023-10-10T10:12:32.864Z,5.82
2023-10-10T10:15:21.553Z,6.22
2023-10-10T10:18:15.268Z,6.32
2023-10-10T10:20:48.055Z,6.55
2023-10-10T10:23:19.420Z,5.82
2023-10-10T10:26:12.270Z,6.80
2023-10-10T10:28:42.974Z,6.38
2023-10-10T10:31:29.229Z,6.95
2023-10-10T10:34:06.898Z,6.90
2023-10-10T10:36:55.427Z,6.30
2023-10-10T10:39:28.400Z,6.95
2023-10-10T10:41:57.706Z,6.70
2023-10-10T10:44:47.691Z,7.68
2023-10-10T10:47:39.409Z,7.32
2023-10-10T10:50:18.704Z,6.38
2023-10-10T10:52:57.964Z,6.63
2023-10-10T10:55:30.487Z,7.60
2023-10-10T10:58:07.509Z,7.47
2023-10-10T11:01:00.157Z,7.57
2023-10-10T11:03:34.801Z,6.93
2023-10-10T11:06:02.253Z,7.43
2023-10-10T11:08:57.164Z,7.18
2023-10-10T11:11:33.211Z,7.13
2023-10-10T11:14:27.230Z,6.78
2023-10-10T11:16:59.540Z,7.35
2023-10-10T11:19:30.530Z,6.55
2023-10-10T11:22:02.327Z,7.65
2023-10-10T11:24:32.826Z,6.63
2023-10-10T11:27:08.337Z,6.95
2023-10-10T11:30:01.141Z,7.53
2023-10-10T11:32:37.901Z,6.78
2023-10-10T11:35:34.074Z,7.05
2023-10-10T11:38:00.907Z,7.53
2023-10-10T11:40:31.707Z,7.80
2023-10-10T11:43:00.562Z,7.88
2023-10-10T11:45:28.022Z,7.82
2023-10-10T11:48:06.676Z,8.85
2023-10-10T11:50:48.257Z,8.07
2023-10-10T11:53:28.933Z,8.43
2023-10-10T11:55:56.565Z,8.02
2023-10-10T11:58:36.928Z,7.50
2023-10-10T12:01:07.089Z,8.00
2023-10-10T12:03:41.515Z,7.97
2023-10-10T12:06:18.660Z,8.40
2023-10-10T12:08:48.209Z,7.75
2023-10-10T12:11:21.203Z,8.77
2023-10-10T12:13:49.640Z,8.10
2023-10-10T12:16:18.635Z,7.85
2023-10-10T12:18:51.771Z,8.70
2023-10-10T12:21:22.601Z,8.20
2023-10-10T12:24:02.595Z,7.45
2023-10-10T12:26:37.284Z,7.57
2023-10-10T12:29:03.953Z,8.05
2023-10-10T12:31:34.763Z,7.55
2023-10-10T12:34:01.453Z,8.00
2023-10-10T12:36:31.443Z,8.40
2023-10-10T12:39:05.810Z,7.75
2023-10-10T12:41:47.194Z,7.53
2023-10-10T12:44:15.097Z,7.85
2023-10-10T12:46:41.843Z,7.85
2023-10-10T12:49:12.757Z,7.65
2023-10-10T12:51:40.715Z,8.30
2023-10-10T12:54:11.295Z,7.57
2023-10-10T12:56:50.415Z,7.95
2023-10-10T12:59:27.191Z,8.43
2023-10-10T13:02:01.278Z,8.85
2023-10-10T13:04:33.139Z,8.10
2023-10-10T13:07:06.047Z,8.20
2023-10-10T13:09:33.105Z,8.63
2023-10-10T13:12:03.837Z,7.78
2023-10-10T13:14:34.154Z,8.30
2023-10-10T13:17:21.944Z,8.18
2023-10-10T13:19:49.971Z,8.38
2023-10-10T13:22:22.094Z,8.52
2023-10-10T13:24:50.039Z,8.75
2023-10-10T13:27:18.136Z,8.43
2023-10-10T13:29:44.775Z,7.90
2023-10-10T13:32:11.664Z,8.23
2023-10-10T13:34:38.913Z,7.93
2023-10-10T13:37:08.978Z,8.43
2023-10-10T13:39:49.078Z,9.15
2023-10-10T13:42:16.043Z,8.50
2023-10-10T13:44:43.772Z,8.30
2023-10-10T13:47:11.550Z,9.07
2023-10-10T13:49:45.861Z,8.48
2023-10-10T13:52:13.922Z,7.80
2023-10-10T13:54:40.677Z,8.65
2023-10-10T13:57:08.611Z,8.25
2023-10-10T13:59:35.171Z,8.02
2023-10-10T14:02:05.286Z,8.02
2023-10-10T14:04:47.035Z,8.00
2023-10-10T14:07:15.595Z,8.13
2023-10-10T14:09:56.142Z,8.93
2023-10-10T14:12:33.436Z,9.40
2023-10-10T14:15:00.703Z,8.45
2023-10-10T14:17:27.350Z,8.43
2023-10-10T14:19:53.955Z,8.20
2023-10-10T14:22:25.014Z,8.73
2023-10-10T14:24:53.720Z,8.55
2023-10-10T14:27:21.396Z,8.43
2023-10-10T14:29:49.137Z,8.13
2023-10-10T14:32:30.886Z,8.95
2023-10-10T14:35:01.903Z,8.90
2023-10-10T14:40:00.861Z,9.30
2023-10-10T14:42:29.029Z,8.82
2023-10-10T14:44:55.601Z,9.88
2023-10-10T14:47:22.505Z,8.68
2023-10-10T14:49:51.471Z,9.27
2023-10-10T14:52:19.075Z,8.15
2023-10-10T14:54:50.278Z,8.07
2023-10-10T14:57:25.640Z,8.60
2023-10-10T14:59:56.857Z,8.80
2023-10-10T15:02:27.578Z,8.90
2023-10-10T15:04:55.802Z,8.20
2023-10-10T15:07:22.436Z,9.05
2023-10-10T15:09:49.089Z,8.77
2023-10-10T15:12:15.611Z,8.13
2023-10-10T15:14:44.115Z,9.38
2023-10-10T15:17:11.299Z,8.48
2023-10-10T15:19:37.909Z,7.95
2023-10-10T15:22:04.657Z,7.80
2023-10-10T15:24:34.209Z,8.50
2023-10-10T15:27:01.344Z,8.32
2023-10-10T15:29:28.320Z,10.27
2023-10-10T15:31:57.319Z,9.00
2023-10-10T15:34:24.747Z,8.55
2023-10-10T15:36:51.309Z,8.23
2023-10-10T15:39:18.271Z,9.43
2023-10-10T15:41:46.066Z,9.75
2023-10-10T15:44:14.021Z,9.02
2023-10-10T15:46:43.692Z,8.93
2023-10-10T15:49:29.156Z,8.75
2023-10-10T15:52:04.825Z,8.68
2023-10-10T15:54:35.706Z,8.57
2023-10-10T15:57:09.909Z,8.05
2023-10-10T15:59:42.992Z,8.13
2023-10-10T16:02:11.135Z,9.18
2023-10-10T16:04:43.517Z,8.40
2023-10-10T16:07:11.934Z,8.23
2023-10-10T16:09:38.503Z,8.90
2023-10-10T16:12:08.982Z,9.20
2023-10-10T16:14:38.228Z,9.30
2023-10-10T16:17:05.186Z,9.48
2023-10-10T16:19:33.706Z,9.65
2023-10-10T16:22:02.423Z,10.05
2023-10-10T16:24:29.443Z,9.55
2023-10-10T16:27:00.532Z,9.10
2023-10-10T16:29:34.416Z,10.23
2023-10-10T16:32:10.088Z,9.35
2023-10-10T16:34:41.461Z,9.60
2023-10-10T16:37:10.581Z,11.80
2023-10-10T16:39:39.561Z,11.43
2023-10-10T16:42:06.185Z,12.27
2023-10-10T16:44:32.913Z,13.25
2023-10-10T16:47:02.303Z,14.68
2023-10-10T16:49:29.290Z,12.57
2023-10-10T16:51:55.833Z,14.50
2023-10-10T16:54:22.637Z,12.27
2023-10-10T16:56:49.169Z,15.05
2023-10-10T16:59:16.337Z,15.35
2023-10-10T17:01:46.015Z,16.30
2023-10-10T17:04:12.824Z,16.08
2023-10-10T17:06:39.493Z,15.98
2023-10-10T17:09:06.235Z,17.65
2023-10-10T17:11:33.105Z,15.15
2023-10-10T17:14:01.058Z,14.10
2023-10-10T17:16:30.799Z,15.57
2023-10-10T17:19:14.308Z,14.70
2023-10-10T17:21:47.468Z,12.30
2023-10-10T17:24:16.924Z,14.68
2023-10-10T17:26:45.007Z,11.52
2023-10-10T17:29:14.863Z,13.45
2023-10-10T17:31:41.571Z,15.30
2023-10-10T17:34:08.256Z,13.18
2023-10-10T17:36:38.190Z,12.50
2023-10-10T17:39:05.703Z,15.77
2023-10-10T17:41:36.067Z,13.10
2023-10-10T17:44:10.253Z,12.80
2023-10-10T17:46:37.344Z,12.88
2023-10-10T17:49:05.913Z,14.93
2023-10-10T17:51:36.180Z,18.98
2023-10-10T17:54:03.683Z,21.58
2023-10-10T17:58:57.145Z,28.48
2023-10-10T18:01:23.766Z,26.90
2023-10-10T18:03:55.044Z,29.00
2023-10-10T18:06:27.479Z,23.85
2023-10-10T18:09:01.897Z,21.38
2023-10-10T18:11:33.284Z,18.13
2023-10-10T18:14:00.048Z,16.23
2023-10-10T18:16:26.735Z,16.25
2023-10-10T18:18:53.978Z,15.13
2023-10-10T18:21:23.578Z,15.07
2023-10-10T18:23:50.306Z,14.35
2023-10-10T18:26:19.346Z,14.55
2023-10-10T18:28:45.923Z,14.55
2023-10-10T18:31:19.953Z,15.05
2023-10-10T18:33:46.703Z,16.17
2023-10-10T18:36:13.556Z,16.35
2023-10-10T18:38:40.227Z,16.15
2023-10-10T18:41:07.217Z,14.80
2023-10-10T18:43:33.908Z,13.60
2023-10-10T18:46:01.914Z,11.35
2023-10-10T18:48:29.148Z,11.57
2023-10-10T18:50:56.037Z,12.43
2023-10-10T18:53:26.538Z,11.23
2023-10-10T18:55:55.387Z,12.77
2023-10-10T18:58:27.171Z,11.30
2023-10-10T19:00:56.254Z,11.70
2023-10-10T19:03:23.685Z,10.88
2023-10-10T19:05:53.847Z,12.23
2023-10-10T19:08:21.619Z,12.10
2023-10-10T19:13:20.943Z,12.50
2023-10-10T19:15:50.266Z,12.27
2023-10-10T19:18:17.274Z,10.48
2023-10-10T19:20:47.830Z,9.45
2023-10-10T19:23:16.115Z,10.18
2023-10-10T19:25:49.051Z,11.70
2023-10-10T19:28:17.328Z,10.50
2023-10-10T19:30:45.296Z,11.35
2023-10-10T19:33:16.371Z,9.80
2023-10-10T19:35:46.895Z,9.80
2023-10-10T19:38:13.780Z,10.10
2023-10-10T19:40:44.767Z,10.60
2023-10-10T19:43:14.035Z,9.57
2023-10-10T19:45:41.319Z,8.80
2023-10-10T19:48:08.503Z,8.80
2023-10-10T19:50:44.207Z,9.50
2023-10-10T19:53:14.146Z,8.45
2023-10-10T19:55:45.329Z,9.65
2023-10-10T19:58:13.130Z,9.20
2023-10-10T20:00:42.865Z,8.23
2023-10-10T20:03:10.945Z,9.40
2023-10-10T20:05:37.902Z,9.45
2023-10-10T20:08:08.798Z,10.68
2023-10-10T20:10:35.405Z,9.77
2023-10-10T20:13:06.590Z,10.07
2023-10-10T20:15:38.334Z,10.35
2023-10-10T20:18:06.601Z,10.52
2023-10-10T20:20:33.870Z,10.52
2023-10-10T20:23:03.406Z,10.55
2023-10-10T20:25:31.608Z,10.93
2023-10-10T20:28:00.945Z,10.63
2023-10-10T20:30:31.570Z,11.15
2023-10-10T20:33:01.922Z,9.40
2023-10-10T20:35:33.135Z,10.98
2023-10-10T20:38:07.175Z,10.35
2023-10-10T20:40:36.221Z,10.32
2023-10-10T20:43:08.518Z,11.25
2023-10-10T20:45:37.618Z,9.82
2023-10-10T20:48:17.071Z,9.07
2023-10-10T20:50:45.072Z,10.73
2023-10-10T20:53:13.176Z,9.48
2023-10-10T20:55:47.190Z,9.77
2023-10-10T21:00:41.660Z,10.43
2023-10-10T21:03:15.474Z,11.23
2023-10-10T21:05:45.522Z,10.93
2023-10-10T21:08:12.345Z,15.60
2023-10-10T21:10:42.009Z,15.02
2023-10-10T21:13:08.771Z,14.25
2023-10-10T21:15:35.351Z,12.50
2023-10-10T21:18:01.969Z,10.82
2023-10-10T21:20:29.293Z,11.50
2023-10-10T21:23:00.655Z,10.85
2023-10-10T21:25:28.079Z,11.32
2023-10-10T21:27:58.454Z,10.27
2023-10-10T21:30:26.919Z,10.60
2023-10-10T21:32:55.487Z,9.93
2023-10-10T21:35:24.320Z,9.23
2023-10-10T21:37:50.959Z,9.85
2023-10-10T21:40:21.385Z,9.45
2023-10-10T21:42:50.035Z,10.15
2023-10-10T21:45:17.804Z,9.25
2023-10-10T21:47:48.507Z,9.50
2023-10-10T21:50:17.049Z,10.13
2023-10-10T21:52:45.408Z,9.18
2023-10-10T21:55:14.619Z,10.20
2023-10-10T21:57:41.708Z,10.68
2023-10-10T22:00:20.917Z,9.88
2023-10-10T22:02:50.557Z,9.07
2023-10-10T22:05:20.100Z,9.68
2023-10-10T22:07:48.278Z,8.82
2023-10-10T22:10:16.885Z,8.65
2023-10-10T22:12:44.649Z,8.50
2023-10-10T22:15:12.279Z,9.20
2023-10-10T22:17:42.882Z,9.35
2023-10-10T22:20:12.099Z,9.40
2023-10-10T22:22:41.891Z,9.73
2023-10-10T22:25:18.945Z,10.57
2023-10-10T22:27:47.146Z,9.40
2023-10-10T22:30:15.801Z,9.55
2023-10-10T22:32:46.101Z,8.77
2023-10-10T22:35:14.311Z,9.30
2023-10-10T22:37:41.489Z,9.73
2023-10-10T22:40:12.892Z,9.48
2023-10-10T22:42:39.731Z,9.52
2023-10-10T22:45:11.096Z,8.57
2023-10-10T22:47:38.842Z,9.18
2023-10-10T22:52:38.178Z,8.48
2023-10-10T22:55:08.034Z,8.68
2023-10-10T22:57:38.204Z,8.55
2023-10-10T23:00:14.359Z,8.88
2023-10-10T23:02:49.443Z,7.82
2023-10-10T23:05:16.150Z,8.50
2023-10-10T23:07:43.090Z,8.80
2023-10-10T23:10:17.430Z,9.45
2023-10-10T23:12:44.086Z,9.00
2023-10-10T23:15:12.874Z,8.93
2023-10-10T23:17:41.191Z,9.90
2023-10-10T23:20:13.668Z,9.52
2023-10-10T23:22:41.663Z,9.77
2023-10-10T23:25:09.355Z,8.55
2023-10-10T23:30:02.769Z,9.18
2023-10-10T23:32:29.523Z,9.32
2023-10-10T23:34:57.006Z,8.25
2023-10-10T23:37:24.665Z,9.00
2023-10-10T23:42:25.006Z,9.13
2023-10-10T23:44:51.602Z,8.88
2023-10-10T23:47:20.718Z,8.80
2023-10-10T23:49:48.224Z,8.90
2023-10-10T23:52:17.289Z,8.98
2023-10-10T23:54:46.644Z,7.65
2023-10-10T23:57:15.987Z,9.02
2023-10-10T23:59:46.479Z,8.88
